Time;durP1;ratioP1;P1;durP2;ratioP2;P2;SDS_P1;SDS_P2;PMS_P1;PMS_P2;Temp;Humidity;BMP_temperature;BMP_pressure;BME280_temperature;BME280_humidity;BME280_pressure;Samples;Min_cycle;Max_cycle;Signal;HPM_P1;HPM_P2
2024/02/02 00:00:14;;;;;;;0.20;0.20;;;;;;;8.84;51.05;101924.34;5089249;28;20028;-86
2024/02/02 00:02:40;;;;;;;0.20;0.20;;;;;;;8.65;51.28;101923.88;5089340;28;20082;-86
2024/02/02 00:05:06;;;;;;;0.20;0.20;;;;;;;8.68;51.29;101920.41;5072385;28;20032;-86
2024/02/02 00:07:32;;;;;;;0.20;0.20;;;;;;;8.52;50.64;101906.97;5088979;28;20058;-88
2024/02/02 00:09:57;;;;;;;0.20;0.20;;;;;;;8.66;49.92;101912.72;5055597;28;20024;-86
2024/02/02 00:12:23;;;;;;;0.20;0.20;;;;;;;8.56;49.58;101912.03;5089227;28;20099;-87
2024/02/02 00:14:49;;;;;;;0.20;0.20;;;;;;;8.56;49.07;101906.03;5072117;28;20504;-86
2024/02/02 00:17:14;;;;;;;0.20;0.20;;;;;;;8.27;48.91;101873.91;5088809;28;20074;-86
2024/02/02 00:19:40;;;;;;;0.20;0.20;;;;;;;8.29;49.33;101884.19;5055312;28;20062;-86
2024/02/02 00:22:06;;;;;;;0.20;0.20;;;;;;;8.34;50.05;101893.53;5071727;28;20034;-87
2024/02/02 00:24:31;;;;;;;0.20;0.20;;;;;;;8.34;50.60;101903.84;5072248;28;20032;-87
2024/02/02 00:26:57;;;;;;;0.20;0.20;;;;;;;8.11;50.91;101893.09;5089002;28;20103;-86
2024/02/02 00:29:23;;;;;;;0.20;0.20;;;;;;;8.19;50.22;101906.72;5092358;28;20067;-85
2024/02/02 00:31:48;;;;;;;0.20;0.20;;;;;;;8.18;50.12;101912.75;5058965;28;20458;-87
2024/02/02 00:34:14;;;;;;;0.20;0.20;;;;;;;8.08;49.97;101900.91;5092554;28;20028;-86
2024/02/02 00:36:39;;;;;;;0.20;0.20;;;;;;;8.05;50.14;101891.47;5075163;28;20103;-86
2024/02/02 00:39:05;;;;;;;0.20;0.20;;;;;;;7.95;50.02;101883.94;5075503;28;20496;-88
2024/02/02 00:41:31;;;;;;;0.20;0.20;;;;;;;7.97;49.87;101892.53;5092391;28;20115;-86
2024/02/02 00:43:56;;;;;;;0.20;0.20;;;;;;;8.07;50.18;101909.53;5092111;28;20027;-87
2024/02/02 00:46:22;;;;;;;0.20;0.20;;;;;;;7.81;50.45;101870.47;5058782;28;20528;-85
2024/02/02 00:48:47;;;;;;;0.20;0.20;;;;;;;7.97;50.69;101913.13;5092327;28;20032;-88
2024/02/02 00:51:13;;;;;;;0.20;0.20;;;;;;;7.96;50.89;101911.41;5092031;28;20527;-86
2024/02/02 00:53:39;;;;;;;0.20;0.20;;;;;;;7.86;51.15;101907.28;5092250;28;20027;-87
2024/02/02 00:56:04;;;;;;;0.10;0.10;;;;;;;7.88;51.44;101921.88;5091898;28;20051;-87
2024/02/02 00:58:30;;;;;;;0.20;0.20;;;;;;;7.94;51.49;101921.75;5092089;28;20399;-87
2024/02/02 01:00:56;;;;;;;0.20;0.20;;;;;;;7.94;51.78;101910.59;5092014;28;20039;-87
2024/02/02 01:03:21;;;;;;;0.20;0.20;;;;;;;7.94;52.13;101920.91;5093594;28;20051;-87
2024/02/02 01:05:47;;;;;;;0.20;0.20;;;;;;;7.94;52.73;101919.16;5057827;28;20085;-86
2024/02/02 01:08:14;;;;;;;0.20;0.20;;;;;;;7.89;53.06;101915.84;5091986;28;20473;-87
2024/02/02 01:10:39;;;;;;;0.20;0.20;;;;;;;7.68;53.79;101899.03;5058555;28;20498;-87
2024/02/02 01:13:05;;;;;;;0.20;0.20;;;;;;;7.88;53.98;101915.88;5091938;28;20024;-87
2024/02/02 01:15:31;;;;;;;0.20;0.20;;;;;;;7.69;54.75;101894.72;5092165;28;20031;-86
2024/02/02 01:17:57;;;;;;;0.20;0.20;;;;;;;7.80;54.88;101904.84;5074709;28;20060;-85
2024/02/02 01:20:23;;;;;;;0.20;0.20;;;;;;;7.91;55.03;101905.50;5074135;28;20506;-86
2024/02/02 01:22:48;;;;;;;0.20;0.20;;;;;;;7.78;55.39;101875.69;5091567;28;20028;-86
2024/02/02 01:25:14;;;;;;;0.20;0.20;;;;;;;7.86;55.37;101886.69;5091362;28;20120;-87
2024/02/02 01:27:41;;;;;;;0.20;0.20;;;;;;;7.86;55.34;101877.22;5091434;28;20415;-86
2024/02/02 01:30:07;;;;;;;0.20;0.20;;;;;;;7.88;55.35;101893.53;5074388;28;20028;-86
2024/02/02 01:32:33;;;;;;;0.20;0.20;;;;;;;7.86;55.93;101884.09;5091161;28;20032;-86
2024/02/02 01:34:59;;;;;;;0.20;0.20;;;;;;;7.79;55.91;101882.53;5091509;28;20028;-88
2024/02/02 01:37:25;;;;;;;0.20;0.20;;;;;;;7.91;56.13;101895.19;5092609;28;20502;-87
2024/02/02 01:39:50;;;;;;;0.20;0.20;;;;;;;7.82;56.08;101880.75;5057824;28;20497;-85
2024/02/02 01:42:16;;;;;;;0.20;0.20;;;;;;;7.82;56.27;101898.78;5074244;28;20484;-85
2024/02/02 01:44:41;;;;;;;0.20;0.20;;;;;;;7.82;56.57;101903.94;5074249;28;20034;-87
2024/02/02 01:47:07;;;;;;;0.20;0.20;;;;;;;7.84;56.36;101896.16;5090931;28;20162;-86
2024/02/02 01:49:34;;;;;;;0.20;0.20;;;;;;;7.82;56.42;101890.19;5057498;28;20035;-87
2024/02/02 01:52:00;;;;;;;0.20;0.20;;;;;;;7.68;56.56;101867.28;5091073;28;20020;-86
2024/02/02 01:54:26;;;;;;;0.20;0.20;;;;;;;7.78;56.90;101907.44;5091075;28;20027;-86
2024/02/02 01:56:51;;;;;;;0.10;0.10;;;;;;;7.76;57.32;101894.56;5090886;28;20027;-87
2024/02/02 01:59:17;;;;;;;0.20;0.20;;;;;;;7.79;57.12;101904.00;5092201;28;20099;-85
2024/02/02 02:01:43;;;;;;;0.20;0.20;;;;;;;7.81;57.36;101917.69;5090497;28;20123;-87
2024/02/02 02:04:08;;;;;;;0.20;0.20;;;;;;;7.73;57.56;101920.38;5073860;28;20112;-85
2024/02/02 02:06:35;;;;;;;0.20;0.20;;;;;;;7.82;57.72;101934.00;5090536;28;20106;-86
2024/02/02 02:09:01;;;;;;;0.20;0.20;;;;;;;7.83;57.73;101936.53;5074028;28;20035;-88
2024/02/02 02:11:27;;;;;;;0.10;0.10;;;;;;;7.79;57.96;101928.91;5090748;28;20148;-87
2024/02/02 02:13:54;;;;;;;0.20;0.20;;;;;;;7.88;57.72;101942.50;5073854;28;20069;-86
2024/02/02 02:16:19;;;;;;;0.20;0.20;;;;;;;7.75;58.04;101931.50;5073598;28;20024;-86
2024/02/02 02:18:45;;;;;;;0.20;0.20;;;;;;;7.87;58.09;101934.78;5057123;28;20490;-85
2024/02/02 02:21:26;;;;;;;0.20;0.20;;;;;;;7.94;59.14;101944.09;5090302;28;20516;-86
2024/02/02 02:23:51;;;;;;;0.10;0.10;;;;;;;7.96;59.46;101942.34;5073442;28;20448;-86
2024/02/02 02:26:20;;;;;;;0.20;0.20;;;;;;;7.94;60.01;101949.25;5090466;28;20028;-85
2024/02/02 02:28:46;;;;;;;0.20;0.20;;;;;;;7.93;59.66;101932.09;5073966;28;20024;-87
2024/02/02 02:31:12;;;;;;;0.20;0.20;;;;;;;7.94;59.54;101956.97;5091404;28;20032;-86
2024/02/02 02:33:39;;;;;;;0.20;0.20;;;;;;;8.00;59.15;101928.53;5073351;28;20035;-87
2024/02/02 02:36:04;;;;;;;0.20;0.20;;;;;;;7.94;58.94;101933.78;5056737;28;20070;-86
2024/02/02 02:38:30;;;;;;;0.20;0.20;;;;;;;7.79;59.90;101931.47;5056561;28;20067;-85
2024/02/02 02:40:56;;;;;;;0.20;0.20;;;;;;;7.66;60.46;101923.94;5056554;28;20556;-86
2024/02/02 02:43:21;;;;;;;0.20;0.20;;;;;;;7.65;59.99;101906.78;5091080;28;20028;-85
2024/02/02 02:45:47;;;;;;;0.20;0.20;;;;;;;7.76;61.60;101933.22;5072978;28;20020;-87
2024/02/02 02:48:12;;;;;;;0.20;0.20;;;;;;;7.75;62.26;101913.47;5090154;28;20153;-87
2024/02/02 02:50:38;;;;;;;0.20;0.20;;;;;;;7.85;61.78;101918.47;5090004;28;20143;-86
2024/02/02 02:53:04;;;;;;;0.20;0.20;;;;;;;7.84;61.53;101916.78;5073046;28;20071;-87
2024/02/02 02:55:29;;;;;;;0.20;0.20;;;;;;;7.94;61.68;101929.47;5089777;28;20471;-86
2024/02/02 02:57:55;;;;;;;0.20;0.20;;;;;;;7.78;62.18;101917.75;5089735;28;20020;-86
2024/02/02 03:00:27;;;;;;;0.20;0.20;;;;;;;7.93;62.44;101929.50;5072809;28;20063;-87
2024/02/02 03:02:53;;;;;;;0.20;0.20;;;;;;;7.80;62.69;101903.13;5074047;28;20111;-87
2024/02/02 03:05:19;;;;;;;0.20;0.20;;;;;;;7.87;62.99;101927.91;5089610;28;20495;-86
2024/02/02 03:07:44;;;;;;;0.20;0.20;;;;;;;7.88;63.48;101921.03;5072676;28;20107;-85
2024/02/02 03:10:10;;;;;;;0.20;0.20;;;;;;;7.74;64.54;101910.94;5072807;28;20028;-88
2024/02/02 03:12:35;;;;;;;0.20;0.20;;;;;;;7.69;65.44;101923.06;5089817;28;20410;-87
2024/02/02 03:15:01;;;;;;;0.20;0.20;;;;;;;7.67;65.67;101915.34;5072435;28;20111;-86
2024/02/02 03:17:28;;;;;;;0.20;0.20;;;;;;;7.70;66.02;101917.88;5056519;28;20039;-86
2024/02/02 03:19:54;;;;;;;0.20;0.20;;;;;;;7.82;65.15;101936.56;5089627;28;20075;-87
2024/02/02 03:22:19;;;;;;;0.20;0.20;;;;;;;7.83;64.94;101935.69;5072569;28;20102;-86
2024/02/02 03:24:46;;;;;;;0.20;0.20;;;;;;;7.85;64.76;101941.66;5089614;28;20028;-86
2024/02/02 03:27:11;;;;;;;0.10;0.10;;;;;;;7.70;64.30;101909.28;5072656;28;20432;-86
2024/02/02 03:29:37;;;;;;;0.20;0.20;;;;;;;7.75;64.70;101939.25;5072344;28;20031;-85
2024/02/02 03:32:03;;;;;;;0.20;0.20;;;;;;;7.75;64.88;101954.69;5089515;28;20493;-87
2024/02/02 03:34:29;;;;;;;0.20;0.20;;;;;;;7.52;64.74;101913.00;5089271;28;20054;-86
2024/02/02 03:36:54;;;;;;;0.20;0.20;;;;;;;7.69;65.25;101959.97;5090699;28;20044;-86
2024/02/02 03:39:20;;;;;;;0.20;0.20;;;;;;;7.68;65.35;101953.13;5089244;28;20042;-87
2024/02/02 03:41:45;;;;;;;0.20;0.20;;;;;;;7.42;65.88;101929.47;5072455;28;20119;-87
2024/02/02 03:44:12;;;;;;;0.20;0.20;;;;;;;7.21;66.60;101932.38;5088904;28;20076;-88
2024/02/02 03:46:37;;;;;;;0.20;0.20;;;;;;;7.50;66.39;101974.00;5089178;28;20055;-87
2024/02/02 03:49:03;;;;;;;0.20;0.20;;;;;;;7.52;66.55;101972.25;5055806;28;20070;-85
2024/02/02 03:51:28;;;;;;;0.20;0.20;;;;;;;7.55;66.47;101974.75;5055868;28;20144;-86
2024/02/02 03:53:54;;;;;;;0.20;0.20;;;;;;;7.42;66.25;101960.38;5072421;28;20497;-86
2024/02/02 03:56:20;;;;;;;0.20;0.20;;;;;;;7.47;66.67;101976.59;5089293;28;20070;-85
2024/02/02 03:58:45;;;;;;;0.20;0.20;;;;;;;7.51;66.08;101975.69;5072208;28;20454;-86
2024/02/02 04:01:11;;;;;;;0.20;0.20;;;;;;;7.43;66.11;101967.22;5090127;28;20581;-87
2024/02/02 04:03:36;;;;;;;0.20;0.20;;;;;;;7.46;66.18;101969.75;5091511;28;20021;-86
2024/02/02 04:06:02;;;;;;;0.20;0.20;;;;;;;7.36;66.00;101965.59;5059532;28;20024;-86
2024/02/02 04:08:28;;;;;;;0.20;0.20;;;;;;;7.09;66.15;101915.38;5103706;28;20481;-85
2024/02/02 04:10:54;;;;;;;0.20;0.20;;;;;;;7.19;66.43;101958.13;5095520;28;20024;-86
2024/02/02 04:13:19;;;;;;;0.20;0.20;;;;;;;7.26;65.91;101970.03;5112885;28;20160;-86
2024/02/02 04:15:45;;;;;;;0.20;0.20;;;;;;;7.30;65.81;101978.56;5112910;28;20023;-87
2024/02/02 04:18:11;;;;;;;0.10;0.10;;;;;;;7.17;65.52;101950.41;5096139;28;20051;-87
2024/02/02 04:20:36;;;;;;;0.20;0.20;;;;;;;7.19;65.79;101958.13;5112684;28;20560;-88
2024/02/02 04:23:02;;;;;;;0.20;0.20;;;;;;;7.00;66.09;101948.97;5112745;28;20126;-88
2024/02/02 04:25:28;;;;;;;0.20;0.20;;;;;;;7.03;65.72;101966.91;5078988;28;20512;-86
2024/02/02 04:27:53;;;;;;;0.20;0.20;;;;;;;7.00;65.89;101957.53;5095660;28;20519;-87
2024/02/02 04:30:19;;;;;;;0.20;0.20;;;;;;;7.03;65.13;101960.06;5096339;28;20027;-89
2024/02/02 04:32:45;;;;;;;0.20;0.20;;;;;;;6.99;65.04;101968.69;5112978;28;20046;-88
2024/02/02 04:35:10;;;;;;;0.20;0.20;;;;;;;6.97;65.24;101972.97;5112809;28;20481;-88
2024/02/02 04:37:38;;;;;;;0.20;0.20;;;;;;;7.00;64.88;101965.25;5112759;28;20020;-89
2024/02/02 04:40:03;;;;;;;0.20;0.20;;;;;;;6.81;64.92;101941.47;5113635;28;20061;-89
2024/02/02 04:42:29;;;;;;;0.20;0.20;;;;;;;7.04;64.46;101979.75;5113098;28;20096;-89
2024/02/02 04:44:55;;;;;;;0.20;0.20;;;;;;;7.06;63.89;101983.16;5096794;28;20511;-91
2024/02/02 04:47:22;;;;;;;0.20;0.20;;;;;;;7.15;63.81;101985.63;5097503;28;20023;-88
2024/02/02 04:49:48;;;;;;;0.20;0.20;;;;;;;7.17;63.62;101991.59;5113780;28;20024;-90
2024/02/02 04:52:13;;;;;;;0.20;0.20;;;;;;;7.16;63.81;101994.19;5113361;28;20138;-90
2024/02/02 04:54:39;;;;;;;0.20;0.20;;;;;;;7.07;63.38;101973.72;5096629;28;20057;-90
2024/02/02 04:57:05;;;;;;;0.20;0.20;;;;;;;7.17;63.50;102004.47;5096000;28;20070;-91
2024/02/02 04:59:30;;;;;;;0.20;0.20;;;;;;;7.12;63.48;101985.66;5079541;28;20062;-89
2024/02/02 05:01:57;;;;;;;0.20;0.20;;;;;;;7.14;63.18;102001.09;5114260;28;20027;-89
2024/02/02 05:04:22;;;;;;;0.20;0.20;;;;;;;7.21;62.97;101996.72;5096236;28;20118;-89
2024/02/02 05:06:48;;;;;;;0.20;0.20;;;;;;;7.22;62.77;102003.56;5109137;28;20153;-92
2024/02/02 05:09:13;;;;;;;0.20;0.20;;;;;;;7.23;62.79;102000.97;5078895;28;20078;-89
2024/02/02 05:11:39;;;;;;;0.20;0.20;;;;;;;7.19;62.67;102013.03;5109618;28;20470;-90
2024/02/02 05:14:05;;;;;;;0.20;0.20;;;;;;;7.17;62.61;102009.59;5097967;28;20028;-87
2024/02/02 05:16:31;;;;;;;0.20;0.20;;;;;;;7.22;61.95;102021.59;5104539;28;20070;-89
2024/02/02 05:18:56;;;;;;;0.20;0.20;;;;;;;7.13;61.55;101997.66;5100727;28;20022;-87
2024/02/02 05:21:22;;;;;;;0.20;0.20;;;;;;;7.22;61.81;102017.28;5106120;27;20173;-89
2024/02/02 05:23:47;;;;;;;0.20;0.20;;;;;;;7.27;61.66;102027.50;5108618;28;20131;-84
2024/02/02 05:26:13;;;;;;;0.20;0.20;;;;;;;7.27;61.50;102041.22;5112826;27;20402;-90
2024/02/02 05:28:40;;;;;;;0.20;0.20;;;;;;;7.14;62.04;102053.41;5112389;28;20062;-90
2024/02/02 05:31:06;;;;;;;0.20;0.20;;;;;;;7.13;62.01;102069.72;5088939;28;20521;-83
2024/02/02 05:33:32;;;;;;;0.20;0.20;;;;;;;7.16;62.04;102061.94;5103097;28;20120;-86
2024/02/02 05:35:57;;;;;;;0.20;0.20;;;;;;;6.96;61.37;102027.88;5091890;28;20020;-87
2024/02/02 05:38:23;;;;;;;0.20;0.20;;;;;;;7.15;61.23;102069.69;5109253;28;20026;-85
2024/02/02 05:40:48;;;;;;;0.20;0.20;;;;;;;7.10;61.41;102067.19;5110397;28;20437;-87
2024/02/02 05:43:14;;;;;;;0.20;0.20;;;;;;;7.06;61.50;102074.94;5091056;28;20059;-84
2024/02/02 05:45:40;;;;;;;0.20;0.20;;;;;;;7.10;61.14;102071.50;5074734;28;20040;-89
2024/02/02 05:48:06;;;;;;;0.20;0.20;;;;;;;7.24;60.91;102076.47;5073058;28;20405;-85
2024/02/02 05:50:31;;;;;;;0.20;0.20;;;;;;;7.15;60.53;102086.00;5105019;28;20095;-86
2024/02/02 05:52:57;;;;;;;0.20;0.20;;;;;;;7.11;60.44;102094.63;5090269;28;20028;-87
2024/02/02 05:55:23;;;;;;;0.20;0.20;;;;;;;6.97;59.99;102067.31;5091658;28;20111;-91
2024/02/02 05:57:48;;;;;;;0.20;0.20;;;;;;;7.12;59.88;102083.47;5092294;28;20052;-88
2024/02/02 06:00:18;;;;;;;0.20;0.20;;;;;;;7.10;59.53;102092.06;5101485;28;20037;-91
2024/02/02 06:02:44;;;;;;;0.20;0.20;;;;;;;7.17;59.42;102107.41;5094093;28;20023;-91
2024/02/02 06:05:10;;;;;;;0.20;0.20;;;;;;;7.18;58.98;102101.41;5111092;28;20394;-88
2024/02/02 06:07:36;;;;;;;0.20;0.20;;;;;;;7.20;59.13;102109.13;5101327;28;20054;-91
2024/02/02 06:10:01;;;;;;;0.20;0.20;;;;;;;7.16;58.56;102112.56;5106293;28;20031;-90
2024/02/02 06:12:27;;;;;;;0.20;0.20;;;;;;;7.16;58.42;102120.31;5086397;28;20114;-90
2024/02/02 06:14:52;;;;;;;0.20;0.20;;;;;;;7.04;58.08;102092.13;5111940;28;20066;-90
2024/02/02 06:17:18;;;;;;;0.20;0.20;;;;;;;7.24;57.98;102120.22;5107091;28;20020;-90
2024/02/02 06:19:44;;;;;;;0.20;0.20;;;;;;;7.17;58.09;102116.84;5090965;28;20504;-90
2024/02/02 06:22:09;;;;;;;0.20;0.20;;;;;;;7.17;57.86;102115.13;5109779;28;20031;-91
2024/02/02 06:24:35;;;;;;;0.10;0.10;;;;;;;7.12;58.04;102124.63;5111615;27;20036;-91
2024/02/02 06:27:00;;;;;;;0.20;0.20;;;;;;;7.01;57.54;102082.72;5105759;28;20020;-87
2024/02/02 06:29:26;;;;;;;0.20;0.20;;;;;;;7.17;57.72;102096.25;5081471;28;20077;-91
2024/02/02 06:31:52;;;;;;;0.20;0.20;;;;;;;7.34;57.35;102126.97;5088715;28;20040;-90
2024/02/02 06:34:18;;;;;;;0.20;0.20;;;;;;;7.38;57.61;102136.38;5070234;28;20031;-88
2024/02/02 06:36:43;;;;;;;0.20;0.20;;;;;;;7.30;57.99;102115.88;5108162;28;20031;-87
2024/02/02 06:39:09;;;;;;;0.20;0.20;;;;;;;7.32;57.98;102118.41;5087202;28;20060;-85
2024/02/02 06:41:34;;;;;;;0.20;0.20;;;;;;;7.33;58.33;102113.25;5105500;28;20059;-86
2024/02/02 06:44:00;;;;;;;0.20;0.20;;;;;;;7.40;57.80;102127.75;5108359;28;20092;-88
2024/02/02 06:46:25;;;;;;;0.20;0.20;;;;;;;7.44;57.91;102141.44;5110130;28;20507;-88
2024/02/02 06:48:51;;;;;;;0.20;0.20;;;;;;;7.40;58.05;102142.34;5104179;28;20073;-92
2024/02/02 06:51:16;;;;;;;0.20;0.20;;;;;;;7.50;58.24;102132.81;5110989;28;20034;-92
2024/02/02 06:53:43;;;;;;;0.20;0.20;;;;;;;7.64;57.61;102141.19;5109551;28;20035;-89
2024/02/02 06:56:26;;;;;;;0.20;0.20;;;;;;;7.70;57.47;102143.72;5099649;28;20032;-90
2024/02/02 06:58:52;;;;;;;0.20;0.20;;;;;;;7.67;57.20;102138.56;5092371;28;20031;-84
2024/02/02 07:01:17;;;;;;;0.20;0.20;;;;;;;7.73;57.18;102138.50;5110905;28;20042;-89
2024/02/02 07:03:43;;;;;;;0.20;0.20;;;;;;;7.74;57.12;102141.06;5112147;28;20028;-93
2024/02/02 07:06:08;;;;;;;0.20;0.20;;;;;;;7.91;56.75;102155.44;5107782;28;20030;-88
2024/02/02 07:08:34;;;;;;;0.20;0.20;;;;;;;8.01;56.28;102159.59;5078489;28;20031;-92
2024/02/02 07:11:12;;;;;;;0.20;0.20;;;;;;;8.01;56.58;102159.59;5103827;28;20024;-86
2024/02/02 07:13:46;;;;;;;0.20;0.20;;;;;;;8.11;56.24;102162.91;5095888;28;20085;-85
2024/02/02 07:16:31;;;;;;;0.20;0.20;;;;;;;8.09;56.37;102165.50;5088304;28;20066;-85
2024/02/02 07:18:56;;;;;;;0.20;0.20;;;;;;;8.13;56.23;102168.88;5090064;28;20020;-86
2024/02/02 07:21:33;;;;;;;0.20;0.20;;;;;;;8.10;55.92;102172.38;5107871;28;20517;-87
2024/02/02 07:23:58;;;;;;;0.20;0.20;;;;;;;8.25;55.82;102174.72;5087511;28;20106;-86
2024/02/02 07:26:26;;;;;;;0.20;0.20;;;;;;;8.34;56.01;102177.19;5098060;28;20036;-89
2024/02/02 07:28:52;;;;;;;0.20;0.20;;;;;;;8.43;55.16;102185.66;5099999;28;20028;-85
2024/02/02 07:31:39;;;;;;;0.20;0.20;;;;;;;8.41;55.08;102174.53;5108103;28;20058;-91
2024/02/02 07:34:35;;;;;;;0.20;0.20;;;;;;;8.48;55.21;102189.88;5096609;28;20417;-91
2024/02/02 07:37:02;;;;;;;0.17;0.17;;;;;;;8.51;55.14;102183.81;5111467;28;20020;-91
2024/02/02 07:39:29;;;;;;;0.20;0.20;;;;;;;8.49;55.23;102168.38;5086873;28;20085;-82
2024/02/02 07:41:55;;;;;;;0.20;0.20;;;;;;;8.65;55.04;102192.19;5097384;28;20030;-88
2024/02/02 07:44:22;;;;;;;0.20;0.20;;;;;;;8.66;55.18;102187.91;5113804;28;20028;-92
2024/02/02 07:46:47;;;;;;;0.20;0.20;;;;;;;8.65;55.12;102186.19;5097314;28;20531;-85
2024/02/02 07:49:13;;;;;;;0.20;0.20;;;;;;;8.52;55.22;102185.53;5105046;28;20058;-90
2024/02/02 07:51:42;;;;;;;0.20;0.20;;;;;;;8.75;55.14;102190.31;5114053;28;20059;-90
2024/02/02 07:54:09;;;;;;;0.20;0.20;;;;;;;8.62;55.14;102187.94;5110556;28;20053;-86
2024/02/02 07:56:34;;;;;;;0.20;0.20;;;;;;;8.67;55.15;102195.63;5085483;28;20055;-88
2024/02/02 07:59:00;;;;;;;0.20;0.20;;;;;;;8.65;55.86;102199.91;5090850;28;20485;-89
2024/02/02 08:01:28;;;;;;;0.20;0.20;;;;;;;8.64;55.22;102190.47;5084894;28;20067;-87
2024/02/02 08:03:53;;;;;;;0.20;0.20;;;;;;;8.79;55.11;102194.56;5110174;28;20035;-90
2024/02/02 08:06:20;;;;;;;0.20;0.20;;;;;;;8.75;55.06;102198.03;5109814;28;20028;-91
2024/02/02 08:08:45;;;;;;;0.20;0.20;;;;;;;8.80;55.05;102193.69;5084000;28;20039;-91
2024/02/02 08:11:11;;;;;;;0.20;0.20;;;;;;;8.75;55.16;102193.78;5089388;28;20033;-91
2024/02/02 08:13:37;;;;;;;0.20;0.20;;;;;;;8.71;55.19;102206.72;5107103;28;20114;-89
2024/02/02 08:16:03;;;;;;;0.20;0.20;;;;;;;8.62;54.92;102208.56;5113344;28;20481;-90
2024/02/02 08:18:28;;;;;;;0.20;0.20;;;;;;;8.60;55.43;102209.47;5112594;28;20054;-89
2024/02/02 08:20:54;;;;;;;0.20;0.20;;;;;;;8.56;55.56;102197.53;5095276;28;20051;-91
2024/02/02 08:23:19;;;;;;;0.20;0.20;;;;;;;8.49;55.74;102206.22;5113397;28;20043;-90
2024/02/02 08:25:45;;;;;;;0.20;0.20;;;;;;;8.57;55.66;102206.97;5100142;28;20062;-86
2024/02/02 08:28:11;;;;;;;0.20;0.20;;;;;;;8.60;55.54;102214.63;5098550;28;20493;-89
2024/02/02 08:30:36;;;;;;;0.20;0.20;;;;;;;8.67;55.28;102212.81;5111891;28;20516;-91
2024/02/02 08:33:02;;;;;;;0.20;0.20;;;;;;;8.69;55.34;102211.91;5110386;28;20063;-87
2024/02/02 08:35:28;;;;;;;0.20;0.20;;;;;;;8.76;55.14;102226.44;5110090;28;20023;-88
2024/02/02 08:38:01;;;;;;;0.20;0.20;;;;;;;8.84;54.79;102224.56;5106108;28;20031;-86
2024/02/02 08:40:40;;;;;;;0.20;0.20;;;;;;;8.81;54.83;102234.94;5093432;28;20073;-88
2024/02/02 08:43:09;;;;;;;0.20;0.20;;;;;;;8.77;55.10;102220.41;5112395;28;20023;-89
2024/02/02 08:45:41;;;;;;;0.20;0.20;;;;;;;8.85;54.93;102236.63;5112179;28;20035;-84
2024/02/02 08:48:24;;;;;;;0.20;0.20;;;;;;;8.81;54.72;102242.69;5114116;28;20058;-87
2024/02/02 08:50:57;;;;;;;;;;;;;;;8.84;54.63;102245.19;5113118;28;20038;-92
2024/02/02 08:53:22;;;;;;;0.20;0.20;;;;;;;8.71;55.12;102233.38;5113010;28;20010;-87
2024/02/02 08:55:51;;;;;;;0.20;0.20;;;;;;;8.77;55.08;102238.47;5105869;28;20066;-89
2024/02/02 08:58:24;;;;;;;0.20;0.20;;;;;;;8.83;54.73;102268.47;5109343;28;20024;-89
2024/02/02 09:00:50;;;;;;;0.20;0.20;;;;;;;8.77;54.59;102247.94;5079580;28;20115;-88
2024/02/02 09:03:19;;;;;;;0.20;0.20;;;;;;;9.01;54.28;102251.84;5085992;28;20038;-93
2024/02/02 09:05:51;;;;;;;0.20;0.20;;;;;;;9.03;54.46;102250.06;5108595;28;20042;-88
2024/02/02 09:08:17;;;;;;;;;;;;;;;9.11;54.04;102261.13;5103038;28;20044;-89
2024/02/02 09:10:43;;;;;;;0.20;0.20;;;;;;;8.86;54.10;102258.97;5100193;28;19970;-89
2024/02/02 09:13:20;;;;;;;0.20;0.20;;;;;;;9.05;54.04;102258.66;5102776;28;20028;-88
2024/02/02 09:15:46;;;;;;;0.20;0.20;;;;;;;9.03;54.17;102258.66;5091376;28;20043;-90
2024/02/02 09:18:15;;;;;;;0.20;0.20;;;;;;;8.99;53.88;102248.44;5073879;28;20024;-88
2024/02/02 09:20:45;;;;;;;0.20;0.20;;;;;;;9.37;54.24;102250.34;5092460;28;20117;-88
2024/02/02 09:23:11;;;;;;;0.20;0.20;;;;;;;9.18;53.39;102249.81;5088155;28;20036;-87
2024/02/02 09:25:41;;;;;;;0.20;0.20;;;;;;;9.22;53.75;102260.94;5098628;28;20493;-88
2024/02/02 09:28:24;;;;;;;0.20;0.20;;;;;;;9.35;54.05;102268.47;5110763;28;20053;-89
2024/02/02 09:31:03;;;;;;;0.20;0.20;;;;;;;9.32;53.78;102277.97;5086189;28;20020;-92
2024/02/02 09:33:31;;;;;;;0.20;0.20;;;;;;;9.17;53.69;102269.63;5092685;28;20024;-87
2024/02/02 09:36:03;;;;;;;0.20;0.20;;;;;;;9.32;54.05;102278.84;5111158;28;20400;-87
2024/02/02 09:38:32;;;;;;;0.20;0.20;;;;;;;9.40;53.46;102279.56;5094578;28;20081;-91
2024/02/02 09:41:00;;;;;;;0.20;0.20;;;;;;;9.34;54.26;102290.00;5112268;28;20035;-86
2024/02/02 09:43:38;;;;;;;0.20;0.20;;;;;;;9.31;54.11;102284.03;5112154;28;20020;-90
2024/02/02 09:46:29;;;;;;;0.20;0.20;;;;;;;9.29;54.20;102278.03;5112459;28;20080;-85
2024/02/02 09:49:02;;;;;;;0.20;0.20;;;;;;;9.04;54.89;102280.16;5093506;28;20493;-87
2024/02/02 09:51:53;;;;;;;0.20;0.20;;;;;;;9.05;55.52;102281.91;5081851;28;20170;-88
2024/02/02 09:54:43;;;;;;;0.20;0.20;;;;;;;8.93;55.74;102256.25;5102101;28;20114;-89
2024/02/02 09:57:14;;;;;;;0.20;0.20;;;;;;;8.98;55.93;102288.88;5101830;28;20024;-87
2024/02/02 09:59:46;;;;;;;0.20;0.20;;;;;;;8.97;56.36;102276.84;5090858;28;20036;-87
2024/02/02 10:02:44;;;;;;;0.20;0.20;;;;;;;9.00;56.30;102275.94;5102389;28;20027;-87
2024/02/02 10:05:15;;;;;;;0.20;0.20;;;;;;;8.87;56.65;102264.97;5082040;28;20047;-89
2024/02/02 10:08:05;;;;;;;0.20;0.20;;;;;;;8.84;57.00;102262.41;5108081;28;20031;-89
2024/02/02 10:10:42;;;;;;;0.20;0.20;;;;;;;8.82;57.42;102275.34;5096728;28;20016;-85
2024/02/02 10:13:26;;;;;;;0.20;0.20;;;;;;;8.84;57.06;102272.75;5110876;28;20031;-89
2024/02/02 10:16:17;;;;;;;0.20;0.20;;;;;;;8.75;57.48;102271.19;5111635;28;20039;-89
2024/02/02 10:18:48;;;;;;;0.20;0.20;;;;;;;8.65;57.64;102269.59;5110619;28;20023;-90
2024/02/02 10:21:37;;;;;;;0.20;0.20;;;;;;;8.84;57.56;102263.28;5097199;28;20061;-84
2024/02/02 10:24:37;;;;;;;0.20;0.20;;;;;;;8.93;57.46;102264.84;5095676;28;20031;-85
2024/02/02 10:27:12;;;;;;;0.20;0.20;;;;;;;8.82;57.17;102271.91;5109353;28;20035;-91
2024/02/02 10:30:07;;;;;;;0.20;0.20;;;;;;;8.83;57.27;102273.63;5086846;28;20507;-85
2024/02/02 10:33:08;;;;;;;0.20;0.20;;;;;;;8.81;57.84;102272.81;5104598;28;20039;-89
2024/02/02 10:35:52;;;;;;;0.20;0.20;;;;;;;8.69;58.09;102253.19;5068510;28;20059;-87
2024/02/02 10:38:25;;;;;;;0.20;0.20;;;;;;;8.67;57.40;102236.91;5105333;28;20114;-87
2024/02/02 10:41:00;;;;;;;0.20;0.20;;;;;;;8.64;57.72;102242.09;5074739;28;20028;-88
2024/02/02 10:43:35;;;;;;;0.20;0.20;;;;;;;8.73;57.37;102247.09;5110751;28;20108;-90
2024/02/02 10:46:13;;;;;;;0.20;0.20;;;;;;;8.83;57.74;102274.47;5109933;28;20102;-87
2024/02/02 10:49:24;;;;;;;0.20;0.20;;;;;;;8.82;57.62;102266.75;5110245;28;20027;-91
2024/02/02 10:52:08;;;;;;;0.20;0.20;;;;;;;8.69;57.62;102239.44;5068416;28;20043;-82
2024/02/02 10:54:48;;;;;;;0.20;0.20;;;;;;;8.80;57.63;102259.03;5109754;28;20081;-87
2024/02/02 10:57:31;;;;;;;0.20;0.20;;;;;;;8.80;57.67;102258.19;5093865;28;20092;-85
2024/02/02 11:00:13;;;;;;;0.20;0.20;;;;;;;8.79;58.21;102259.91;5092680;28;20023;-88
2024/02/02 11:02:51;;;;;;;0.20;0.20;;;;;;;8.81;57.89;102262.47;5107377;28;20028;-89
2024/02/02 11:05:58;;;;;;;0.20;0.20;;;;;;;8.78;57.92;102253.06;5103941;28;20439;-89
2024/02/02 11:08:27;;;;;;;0.20;0.20;;;;;;;8.68;57.69;102230.84;5090422;28;20032;-91
2024/02/02 11:10:59;;;;;;;0.20;0.20;;;;;;;8.88;57.82;102252.03;5082532;28;20130;-92
2024/02/02 11:13:34;;;;;;;0.20;0.20;;;;;;;8.95;57.72;102244.19;5097385;28;20098;-89
2024/02/02 11:16:26;;;;;;;0.20;0.20;;;;;;;8.98;57.39;102251.88;5110008;28;20023;-87
2024/02/02 11:19:21;;;;;;;0.20;0.20;;;;;;;8.94;57.61;102232.16;5077757;28;20040;-87
2024/02/02 11:22:02;;;;;;;0.20;0.20;;;;;;;8.90;57.95;102245.13;5107633;28;20560;-88
2024/02/02 11:25:11;;;;;;;0.20;0.20;;;;;;;9.02;57.76;102246.63;5087025;28;20044;-86
2024/02/02 11:28:12;;;;;;;0.20;0.20;;;;;;;9.04;57.69;102251.78;5084812;28;20142;-86
2024/02/02 11:30:46;;;;;;;0.20;0.20;;;;;;;9.08;56.85;102253.44;5068389;28;20075;-88
2024/02/02 11:33:21;;;;;;;0.20;0.20;;;;;;;9.17;56.69;102261.03;5091151;28;20347;-89
2024/02/02 11:35:50;;;;;;;0.20;0.20;;;;;;;9.18;56.39;102260.16;5108643;28;20500;-92
2024/02/02 11:38:48;;;;;;;0.20;0.20;;;;;;;9.18;56.86;102257.56;5111736;28;20057;-89
2024/02/02 11:41:20;;;;;;;0.20;0.20;;;;;;;9.23;56.33;102250.59;5074997;28;20509;-84
2024/02/02 11:43:45;;;;;;;0.20;0.20;;;;;;;9.18;56.48;102255.84;5107715;28;20031;-87